Terminal Aerodrome Forecast
Issued by NWS

Home | Current Version | Previous Version | Text Only | Print | Product List | Glossary On
Versions: 1 2 3 4 5 6 7 8 9 10 11 12 13 14 15 16 17 18
838
FTUS44 KBMX 171801 AAA
TAFEET
TAF AMD
KEET 171801Z 1718/1818 18009G13KT P6SM SCT021 OVC029
     FM172100 20007KT P6SM OVC025
     FM180000 19003KT P6SM VCSH OVC020
     FM180600 22002KT 5SM BR VCSH OVC008
     FM180900 22003KT 4SM BR OVC003=

USA.gov is the U.S. government's official web portal to all federal, state and local government web resources and services.